Time;durP1;ratioP1;P1;durP2;ratioP2;P2;SDS_P1;SDS_P2;PMS_P1;PMS_P2;Temp;Humidity;BMP_temperature;BMP_pressure;BME280_temperature;BME280_humidity;BME280_pressure;Samples;Min_cycle;Max_cycle;Signal;HPM_P1;HPM_P2
2021/09/17 00:01:13;;;;;;;35.45;24.00;;;;;;;16.61;77.97;101731.53;5044049;28;20122;-43
2021/09/17 00:03:38;;;;;;;38.03;25.38;;;;;;;16.60;77.82;101730.69;5047348;28;20357;-42
2021/09/17 00:06:03;;;;;;;32.88;24.20;;;;;;;16.65;77.92;101732.81;5036026;28;20510;-42
2021/09/17 00:08:29;;;;;;;40.05;27.23;;;;;;;16.65;77.61;101732.81;5037513;28;20028;-41
2021/09/17 00:10:54;;;;;;;36.42;25.77;;;;;;;16.68;77.56;101727.81;5058282;28;20094;-43
2021/09/17 00:13:20;;;;;;;34.67;24.27;;;;;;;16.71;77.69;101732.00;5064595;28;20072;-42
2021/09/17 00:15:45;;;;;;;33.42;24.55;;;;;;;16.72;77.65;101720.13;5065380;28;20029;-43
2021/09/17 00:18:10;;;;;;;35.40;24.40;;;;;;;16.74;77.80;101726.16;5054324;28;20054;-42
2021/09/17 00:20:36;;;;;;;36.63;25.35;;;;;;;16.74;77.32;101720.72;5050544;28;20021;-42
2021/09/17 00:23:01;;;;;;;36.85;24.60;;;;;;;16.73;77.41;101719.06;5028318;28;20041;-43
2021/09/17 00:25:26;;;;;;;35.05;23.90;;;;;;;16.76;77.76;101713.22;5037672;28;20033;-43
2021/09/17 00:27:52;;;;;;;38.95;25.95;;;;;;;16.75;77.47;101716.16;5035430;28;20037;-41
2021/09/17 00:30:18;;;;;;;34.70;24.77;;;;;;;16.76;77.48;101717.81;5053965;28;20081;-42
2021/09/17 00:32:43;;;;;;;39.00;24.95;;;;;;;16.74;77.51;101712.56;5042930;28;20021;-39
2021/09/17 00:35:09;;;;;;;39.25;25.67;;;;;;;16.72;77.35;101711.97;5028420;28;20039;-42
2021/09/17 00:37:35;;;;;;;34.85;24.33;;;;;;;16.72;77.36;101709.25;5072212;28;20028;-42
2021/09/17 00:40:00;;;;;;;35.53;24.60;;;;;;;16.72;76.98;101706.53;5074001;28;20031;-42
2021/09/17 00:42:25;;;;;;;31.05;22.40;;;;;;;16.73;77.43;101702.75;5053732;28;20039;-42
2021/09/17 00:44:51;;;;;;;36.83;23.85;;;;;;;16.73;77.47;101699.19;5036763;28;20044;-42
2021/09/17 00:47:16;;;;;;;35.65;24.58;;;;;;;16.73;77.07;101702.75;5049053;28;20025;-42
2021/09/17 00:49:41;;;;;;;42.78;25.77;;;;;;;16.73;77.06;101694.59;5053772;28;20025;-43
2021/09/17 00:52:07;;;;;;;34.67;23.17;;;;;;;16.74;77.33;101696.25;5037440;28;20092;-43
2021/09/17 00:54:34;;;;;;;33.72;24.02;;;;;;;16.75;77.58;101691.69;5044562;28;20090;-42
2021/09/17 00:57:00;;;;;;;33.88;23.88;;;;;;;16.74;77.40;101693.53;5054988;28;20040;-43
2021/09/17 00:59:25;;;;;;;32.42;23.38;;;;;;;16.75;77.36;101684.38;5038454;28;20052;-43
2021/09/17 01:01:51;;;;;;;31.90;23.13;;;;;;;16.74;77.70;101682.66;5044099;28;20056;-43
2021/09/17 01:04:16;;;;;;;35.28;24.05;;;;;;;16.72;77.37;101690.22;5019042;28;20033;-42
2021/09/17 01:06:43;;;;;;;36.60;24.58;;;;;;;16.71;77.43;101685.78;5039961;28;20039;-43
2021/09/17 01:09:08;;;;;;;38.53;25.08;;;;;;;16.72;77.51;101682.06;5053168;28;20029;-43
2021/09/17 01:11:34;;;;;;;31.90;23.05;;;;;;;16.70;77.91;101686.84;5055697;28;20029;-43
2021/09/17 01:14:01;;;;;;;36.05;23.70;;;;;;;16.70;77.84;101675.16;5033936;28;20029;-42
2021/09/17 01:16:26;;;;;;;33.63;23.20;;;;;;;16.71;78.23;101674.09;5053366;28;20021;-42
2021/09/17 01:18:53;;;;;;;34.22;23.80;;;;;;;16.70;78.12;101675.97;5042864;28;20120;-42
2021/09/17 01:21:19;;;;;;;33.25;22.77;;;;;;;16.68;78.42;101673.44;5047766;28;20119;-43
2021/09/17 01:23:45;;;;;;;32.97;23.20;;;;;;;16.68;78.42;101667.19;5025476;28;20056;-43
2021/09/17 01:26:10;;;;;;;33.97;22.85;;;;;;;16.66;78.66;101661.94;5041313;28;20025;-43
2021/09/17 01:28:35;;;;;;;33.35;23.15;;;;;;;16.68;78.54;101657.13;5059371;28;20487;-44
2021/09/17 01:31:01;;;;;;;31.40;23.70;;;;;;;16.68;78.54;101656.31;5039911;28;20021;-43
2021/09/17 01:33:26;;;;;;;36.00;24.67;;;;;;;16.64;78.40;101655.88;5045327;28;20365;-43
2021/09/17 01:35:59;;;;;;;36.03;25.58;;;;;;;16.62;78.67;101646.25;5057906;28;20426;-43
2021/09/17 01:38:26;;;;;;;37.15;24.83;;;;;;;16.60;78.81;101648.34;5052768;28;20048;-43
2021/09/17 01:40:52;;;;;;;35.20;23.77;;;;;;;16.58;79.07;101650.41;5056188;28;20489;-42
2021/09/17 01:43:17;;;;;;;33.42;24.45;;;;;;;16.59;79.12;101647.50;5058259;28;20111;-39
2021/09/17 01:45:42;;;;;;;38.45;26.15;;;;;;;16.59;78.85;101644.78;5063263;28;20476;-43
2021/09/17 01:48:08;;;;;;;39.17;26.50;;;;;;;16.58;78.83;101645.81;5051910;28;20483;-43
2021/09/17 01:50:33;;;;;;;39.38;25.80;;;;;;;16.60;79.00;101645.63;5049830;28;20387;-43
2021/09/17 01:52:58;;;;;;;39.90;26.98;;;;;;;16.62;78.88;101638.09;5027938;28;20029;-42
2021/09/17 01:55:24;;;;;;;40.83;28.80;;;;;;;16.58;78.60;101644.97;5036814;28;20098;-42
2021/09/17 01:57:50;;;;;;;44.97;28.30;;;;;;;16.57;78.85;101633.28;5047801;28;20072;-42
2021/09/17 02:00:16;;;;;;;46.88;30.40;;;;;;;16.58;78.84;101625.94;5037402;28;20167;-43
2021/09/17 02:02:41;;;;;;;45.50;28.55;;;;;;;16.62;78.54;101638.09;5049513;28;20120;-42
2021/09/17 02:05:07;;;;;;;41.13;27.73;;;;;;;16.60;78.71;101632.84;5039664;28;20029;-43
2021/09/17 02:07:33;;;;;;;43.75;30.55;;;;;;;16.60;78.60;101626.59;5044234;28;20055;-43
2021/09/17 02:09:58;;;;;;;54.03;31.83;;;;;;;16.57;78.56;101627.00;5042326;28;20119;-43
2021/09/17 02:12:23;;;;;;;46.33;29.70;;;;;;;16.57;78.77;101633.28;5045732;28;20021;-43
2021/09/17 02:14:49;;;;;;;45.00;30.17;;;;;;;16.58;78.99;101628.66;5031719;28;20117;-42
2021/09/17 02:17:15;;;;;;;47.70;31.00;;;;;;;16.51;79.32;101620.50;5039365;28;20044;-43
2021/09/17 02:19:40;;;;;;;47.20;31.45;;;;;;;16.54;78.96;101619.25;5039840;28;20433;-42
2021/09/17 02:22:06;;;;;;;53.10;33.13;;;;;;;16.47;79.46;101616.50;5041720;28;20122;-44
2021/09/17 02:24:31;;;;;;;51.70;32.80;;;;;;;16.41;79.95;101610.00;5022895;28;20083;-43
2021/09/17 02:26:56;;;;;;;49.53;31.90;;;;;;;16.45;79.93;101621.28;5052008;28;20033;-43
2021/09/17 02:29:22;;;;;;;58.47;35.63;;;;;;;16.45;80.39;101611.25;5041576;28;20022;-42
2021/09/17 02:31:47;;;;;;;56.58;34.90;;;;;;;16.44;80.37;101609.59;5036083;28;20056;-42
2021/09/17 02:34:12;;;;;;;63.30;37.28;;;;;;;16.43;80.50;101612.53;5048054;28;20033;-43
2021/09/17 02:36:38;;;;;;;59.38;36.55;;;;;;;16.42;80.81;101602.69;5072073;28;20024;-42
2021/09/17 02:39:05;;;;;;;61.20;37.92;;;;;;;16.39;81.09;101601.19;5064469;28;20035;-43
2021/09/17 02:41:30;;;;;;;60.47;35.60;;;;;;;16.42;81.04;101602.69;5051516;28;20021;-42
2021/09/17 02:43:55;;;;;;;60.45;37.75;;;;;;;16.48;80.83;101595.59;5037799;28;20499;-42
2021/09/17 02:46:21;;;;;;;73.93;41.40;;;;;;;16.47;81.12;101589.31;5050918;28;20033;-42
2021/09/17 02:48:46;;;;;;;69.70;40.72;;;;;;;16.43;81.33;101588.91;5039839;28;20064;-42
2021/09/17 02:51:12;;;;;;;73.13;41.50;;;;;;;16.45;81.48;101586.81;5050600;28;20394;-43
2021/09/17 02:53:37;;;;;;;74.13;42.25;;;;;;;16.50;81.58;101582.66;5043991;28;20539;-43
2021/09/17 02:56:03;;;;;;;80.40;45.10;;;;;;;16.47;81.76;101573.03;5063807;28;20132;-42
2021/09/17 02:58:28;;;;;;;74.40;41.88;;;;;;;16.48;81.96;101574.69;5045592;28;20431;-43
2021/09/17 03:00:54;;;;;;;83.35;45.25;;;;;;;16.45;82.08;101575.94;5050823;28;20472;-43
2021/09/17 03:03:21;;;;;;;81.97;44.08;;;;;;;16.50;81.93;101577.22;5054371;28;20031;-42
2021/09/17 03:05:46;;;;;;;79.43;45.03;;;;;;;16.52;81.85;101573.25;5045518;28;20075;-43
2021/09/17 03:08:13;;;;;;;74.53;41.40;;;;;;;16.58;81.70;101566.16;5036294;28;20034;-43
2021/09/17 03:10:38;;;;;;;74.25;42.35;;;;;;;16.64;81.77;101568.06;5042199;28;20469;-42
2021/09/17 03:13:04;;;;;;;71.57;42.03;;;;;;;16.68;81.51;101569.34;5025756;28;20587;-43
2021/09/17 03:15:29;;;;;;;76.45;43.10;;;;;;;16.71;81.27;101568.91;5039808;28;20040;-43
2021/09/17 03:17:54;;;;;;;77.80;42.03;;;;;;;16.73;81.31;101566.00;5048810;28;20356;-42
2021/09/17 03:20:20;;;;;;;75.13;41.10;;;;;;;16.76;81.21;101571.88;5032819;28;20496;-43
2021/09/17 03:22:45;;;;;;;76.75;42.65;;;;;;;16.76;81.22;101561.00;5047348;28;20433;-40
2021/09/17 03:25:11;;;;;;;83.15;42.63;;;;;;;16.77;81.19;101561.81;5040958;28;20033;-44
2021/09/17 03:27:36;;;;;;;82.22;44.40;;;;;;;16.71;81.50;101560.75;5039458;28;20090;-43
2021/09/17 03:30:03;;;;;;;86.15;46.47;;;;;;;16.70;81.81;101555.56;5036336;28;20403;-43
2021/09/17 03:32:28;;;;;;;81.78;44.50;;;;;;;16.68;81.63;101553.03;5053686;28;20154;-43
2021/09/17 03:34:53;;;;;;;87.47;45.13;;;;;;;16.66;81.65;101563.25;5048094;28;20115;-43
2021/09/17 03:37:19;;;;;;;83.07;43.50;;;;;;;16.67;81.88;101559.50;5055848;28;20112;-43
2021/09/17 03:39:44;;;;;;;88.22;47.05;;;;;;;16.64;81.92;101562.63;5061539;28;20115;-43
2021/09/17 03:42:09;;;;;;;86.93;45.67;;;;;;;16.63;82.02;101555.53;5043287;28;20109;-42
2021/09/17 03:44:34;;;;;;;81.20;43.67;;;;;;;16.64;81.90;101549.88;5020699;28;20037;-44
2021/09/17 03:47:00;;;;;;;85.10;44.70;;;;;;;16.66;81.89;101555.09;5049061;28;20172;-42
2021/09/17 03:49:25;;;;;;;83.35;43.92;;;;;;;16.67;82.10;101551.38;5054919;28;20115;-43
2021/09/17 03:51:51;;;;;;;85.35;45.90;;;;;;;16.65;81.91;101551.56;5054454;28;20025;-43
2021/09/17 03:54:16;;;;;;;90.15;46.05;;;;;;;16.62;81.97;101543.81;5040444;28;20116;-43
2021/09/17 03:56:41;;;;;;;92.20;46.80;;;;;;;16.58;82.12;101547.97;5041204;28;20037;-43
2021/09/17 03:59:07;;;;;;;89.72;47.35;;;;;;;16.56;82.31;101546.50;5044148;28;20036;-43
2021/09/17 04:01:32;;;;;;;87.53;45.72;;;;;;;16.60;82.05;101542.34;5049344;28;20029;-42
2021/09/17 04:03:58;;;;;;;84.38;45.22;;;;;;;16.61;82.23;101538.56;5041658;28;20036;-42
2021/09/17 04:06:23;;;;;;;86.88;46.00;;;;;;;16.58;82.32;101545.25;5064094;28;20030;-42
2021/09/17 04:08:48;;;;;;;88.55;45.60;;;;;;;16.60;82.27;101539.63;5034713;28;20345;-43
2021/09/17 04:11:14;;;;;;;93.00;45.53;;;;;;;16.56;82.20;101539.22;5035532;28;20040;-42
2021/09/17 04:13:39;;;;;;;92.55;44.75;;;;;;;16.57;82.14;101535.44;5043578;28;20052;-42
2021/09/17 04:16:04;;;;;;;88.82;45.20;;;;;;;16.56;82.24;101536.50;5062229;28;20368;-42
2021/09/17 04:18:30;;;;;;;92.03;46.22;;;;;;;16.56;82.12;101541.06;5034386;28;20370;-42
2021/09/17 04:20:55;;;;;;;86.97;46.05;;;;;;;16.56;82.16;101543.78;5035638;28;20049;-42
2021/09/17 04:23:20;;;;;;;85.22;44.55;;;;;;;16.53;82.12;101550.47;5024023;28;20053;-43
2021/09/17 04:25:46;;;;;;;91.43;46.47;;;;;;;16.50;82.04;101545.44;5029948;28;20017;-42
2021/09/17 04:28:11;;;;;;;86.57;44.78;;;;;;;16.51;82.27;101541.69;5038326;28;20020;-42
2021/09/17 04:30:36;;;;;;;87.53;46.35;;;;;;;16.51;82.06;101540.84;5050687;28;20120;-43
2021/09/17 04:33:02;;;;;;;88.68;44.75;;;;;;;16.51;82.07;101544.41;5049631;28;20422;-44
2021/09/17 04:35:27;;;;;;;83.20;46.25;;;;;;;16.50;82.03;101541.91;5041032;28;20051;-44
2021/09/17 04:37:59;;;;;;;88.18;45.20;;;;;;;16.44;82.21;101547.09;5053061;28;20120;-41
2021/09/17 04:40:25;;;;;;;85.72;46.40;;;;;;;16.39;82.36;101548.75;5069953;28;20089;-43
2021/09/17 04:42:51;;;;;;;91.47;46.63;;;;;;;16.36;82.40;101544.56;5051045;28;20021;-43
2021/09/17 04:45:16;;;;;;;84.07;46.40;;;;;;;16.34;82.71;101545.81;5055660;28;20032;-42
2021/09/17 04:47:42;;;;;;;88.75;46.72;;;;;;;16.34;82.59;101546.63;5052998;28;20033;-43
2021/09/17 04:50:08;;;;;;;84.20;46.75;;;;;;;16.32;82.49;101548.72;5056450;28;20104;-43
2021/09/17 04:52:34;;;;;;;85.68;47.13;;;;;;;16.30;82.75;101545.38;5045435;28;20029;-43
2021/09/17 04:54:59;;;;;;;87.22;47.25;;;;;;;16.27;82.66;101545.75;5020170;28;20032;-42
2021/09/17 04:57:28;;;;;;;82.07;46.63;;;;;;;16.25;82.90;101550.59;5053828;28;20045;-43
2021/09/17 04:59:54;;;;;;;81.47;45.78;;;;;;;16.24;82.81;101546.16;5058187;28;20071;-43
2021/09/17 05:02:20;;;;;;;87.32;46.55;;;;;;;16.23;83.03;101541.78;5043049;28;20037;-43
2021/09/17 05:04:45;;;;;;;85.95;47.55;;;;;;;16.21;83.03;101546.59;5029194;28;20047;-42
2021/09/17 05:07:11;;;;;;;91.22;47.83;;;;;;;16.18;83.04;101541.56;5053683;28;20082;-43
2021/09/17 05:09:37;;;;;;;89.13;47.78;;;;;;;16.16;83.19;101540.91;5064949;28;20031;-42
2021/09/17 05:12:03;;;;;;;89.60;49.05;;;;;;;16.10;83.33;101539.84;5072018;28;20066;-42
2021/09/17 05:14:28;;;;;;;96.97;49.15;;;;;;;16.11;83.68;101546.13;5024363;28;20029;-43
2021/09/17 05:16:53;;;;;;;93.22;48.78;;;;;;;16.10;83.66;101544.44;5053371;28;20028;-43
2021/09/17 05:19:22;;;;;;;92.32;49.08;;;;;;;16.07;83.80;101540.25;5058345;28;20032;-43
2021/09/17 05:21:48;;;;;;;90.53;47.58;;;;;;;16.09;83.65;101540.03;5057188;28;20447;-42
2021/09/17 05:24:13;;;;;;;94.07;50.03;;;;;;;16.06;83.76;101543.16;5039694;28;20033;-44
2021/09/17 05:26:39;;;;;;;100.60;49.88;;;;;;;16.00;84.02;101545.63;5053146;28;20053;-43
2021/09/17 05:29:04;;;;;;;95.55;50.38;;;;;;;15.96;84.31;101543.56;5060157;28;20116;-41
2021/09/17 05:31:29;;;;;;;99.43;48.85;;;;;;;15.96;84.40;101533.53;5056947;28;20033;-43
2021/09/17 05:33:55;;;;;;;99.80;51.10;;;;;;;15.95;84.31;101537.25;5021109;28;20066;-43
2021/09/17 05:36:20;;;;;;;104.50;52.60;;;;;;;15.93;84.41;101542.06;5052992;28;20523;-42
2021/09/17 05:38:45;;;;;;;105.03;51.38;;;;;;;15.93;84.37;101538.50;5046806;28;20364;-44
2021/09/17 05:41:11;;;;;;;99.78;50.97;;;;;;;15.93;84.49;101539.34;5032808;28;20433;-42
2021/09/17 05:43:36;;;;;;;104.22;51.90;;;;;;;15.93;84.59;101538.50;5034018;28;20033;-42
2021/09/17 05:46:01;;;;;;;104.13;50.65;;;;;;;15.93;84.44;101538.50;5054828;28;20025;-43
2021/09/17 05:48:27;;;;;;;100.97;51.78;;;;;;;15.94;84.32;101541.03;5052677;28;20029;-43
2021/09/17 05:50:52;;;;;;;105.60;50.67;;;;;;;15.93;84.44;101544.78;5069218;28;20036;-43
2021/09/17 05:53:18;;;;;;;104.03;53.08;;;;;;;15.92;84.42;101547.69;5031705;28;20029;-41
2021/09/17 05:55:43;;;;;;;107.63;54.10;;;;;;;15.92;84.37;101544.97;5044254;28;20513;-43
2021/09/17 05:58:09;;;;;;;103.25;51.25;;;;;;;15.96;84.25;101555.25;5043833;28;20028;-44
2021/09/17 06:00:35;;;;;;;104.45;52.40;;;;;;;15.99;84.21;101554.84;5051418;28;20029;-43
2021/09/17 06:03:01;;;;;;;102.63;51.30;;;;;;;16.08;84.17;101551.94;5041598;28;20026;-41
2021/09/17 06:05:26;;;;;;;104.78;51.80;;;;;;;16.10;83.86;101549.88;5039773;28;20021;-43
2021/09/17 06:07:52;;;;;;;101.25;50.70;;;;;;;16.14;83.91;101556.56;5053875;28;20025;-43
2021/09/17 06:10:17;;;;;;;101.13;51.15;;;;;;;16.16;83.83;101549.06;5042718;28;20032;-43
2021/09/17 06:12:43;;;;;;;96.38;51.00;;;;;;;16.17;83.56;101551.59;5047026;28;20033;-41
2021/09/17 06:15:09;;;;;;;102.97;52.95;;;;;;;16.13;83.57;101547.59;5038541;28;20078;-43
2021/09/17 06:17:34;;;;;;;106.32;52.42;;;;;;;16.14;83.55;101548.41;5047851;28;20028;-41
2021/09/17 06:19:59;;;;;;;102.10;52.92;;;;;;;16.13;84.00;101552.19;5054341;28;20037;-43
2021/09/17 06:22:25;;;;;;;106.10;53.40;;;;;;;16.14;84.09;101545.69;5045728;28;20179;-43
2021/09/17 06:24:50;;;;;;;106.22;52.97;;;;;;;16.13;83.96;101546.75;5031819;28;20025;-42
2021/09/17 06:27:15;;;;;;;102.10;53.47;;;;;;;16.17;83.89;101553.47;5048872;28;20053;-43
2021/09/17 06:29:41;;;;;;;102.80;51.70;;;;;;;16.17;83.84;101548.03;5051686;28;20025;-44
2021/09/17 06:32:06;;;;;;;109.38;51.65;;;;;;;16.24;83.74;101551.59;5046383;28;20048;-42
2021/09/17 06:34:32;;;;;;;97.45;52.13;;;;;;;16.32;83.64;101553.31;5030209;28;20040;-43
2021/09/17 06:36:58;;;;;;;101.13;51.70;;;;;;;16.38;83.32;101555.25;5045506;28;20032;-43
2021/09/17 06:39:24;;;;;;;100.43;52.22;;;;;;;16.40;83.29;101556.72;5046279;28;20163;-44
2021/09/17 06:41:52;;;;;;;103.43;53.28;;;;;;;16.33;83.53;101549.56;5050580;28;20115;-42
2021/09/17 06:44:18;;;;;;;95.47;51.53;;;;;;;16.37;83.42;101551.66;5034448;28;20039;-44
2021/09/17 06:46:44;;;;;;;103.50;54.75;;;;;;;16.38;83.42;101547.91;5047545;28;20029;-44
2021/09/17 06:49:09;;;;;;;102.40;54.08;;;;;;;16.33;83.75;101555.84;5050098;28;20076;-44
2021/09/17 06:51:35;;;;;;;101.82;52.90;;;;;;;16.38;83.48;101553.34;5050234;28;20078;-43
2021/09/17 06:54:00;;;;;;;106.32;53.85;;;;;;;16.34;83.81;101545.81;5035059;28;20033;-41
2021/09/17 06:56:25;;;;;;;98.72;53.53;;;;;;;16.38;83.40;101550.63;5059946;28;20040;-42
2021/09/17 06:58:51;;;;;;;105.50;54.90;;;;;;;16.36;83.85;101558.16;5054386;28;20035;-43
2021/09/17 07:01:16;;;;;;;107.72;54.30;;;;;;;16.40;83.86;101553.13;5054051;28;20063;-44
2021/09/17 07:03:42;;;;;;;101.28;54.15;;;;;;;16.37;83.96;101557.09;5041911;28;20095;-44
2021/09/17 07:06:07;;;;;;;104.38;54.45;;;;;;;16.42;83.75;101557.31;5048658;28;20039;-45
2021/09/17 07:08:32;;;;;;;104.95;53.17;;;;;;;16.50;83.89;101558.19;5053810;28;20094;-44
2021/09/17 07:10:58;;;;;;;97.30;54.33;;;;;;;16.59;83.44;101549.66;5052598;28;20764;-44
2021/09/17 07:13:23;;;;;;;103.90;53.97;;;;;;;16.68;82.97;101553.03;5047550;28;20032;-40
2021/09/17 07:15:48;;;;;;;103.55;52.60;;;;;;;16.66;83.27;101541.50;5045431;28;20029;-43
2021/09/17 07:18:14;;;;;;;101.68;53.08;;;;;;;16.63;83.59;101545.47;5052102;28;20559;-43
2021/09/17 07:20:40;;;;;;;101.88;53.63;;;;;;;16.66;83.37;101541.50;5054152;28;20029;-44
2021/09/17 07:23:06;;;;;;;96.32;51.90;;;;;;;16.76;82.91;101549.28;5048553;28;20037;-44
2021/09/17 07:25:33;;;;;;;102.95;53.50;;;;;;;16.83;82.98;101548.28;5045220;28;20049;-43
2021/09/17 07:27:58;;;;;;;104.15;53.47;;;;;;;16.88;82.82;101550.41;5054871;28;20025;-44
2021/09/17 07:30:24;;;;;;;100.50;53.25;;;;;;;16.88;83.27;101548.50;5053250;28;20399;-44
2021/09/17 07:32:50;;;;;;;95.35;52.45;;;;;;;17.00;82.55;101550.59;5048448;28;20033;-43
2021/09/17 07:35:16;;;;;;;98.05;51.63;;;;;;;17.07;82.52;101540.59;5045001;28;20441;-43
2021/09/17 07:37:42;;;;;;;91.45;51.25;;;;;;;17.09;82.46;101546.66;5052296;28;20029;-43
2021/09/17 07:40:10;;;;;;;92.10;50.92;;;;;;;17.17;82.13;101551.91;5053908;28;20029;-43
2021/09/17 07:42:36;;;;;;;97.60;50.85;;;;;;;17.07;82.71;101560.44;5050645;28;20036;-42
2021/09/17 07:45:01;;;;;;;92.13;47.17;;;;;;;17.18;82.47;101552.72;5035688;28;20029;-43
2021/09/17 07:47:27;;;;;;;96.32;50.63;;;;;;;17.21;82.30;101541.41;5051592;28;20029;-42
2021/09/17 07:49:52;;;;;;;87.45;48.38;;;;;;;17.29;82.25;101549.38;5052137;28;20475;-43
2021/09/17 07:52:18;;;;;;;90.70;47.17;;;;;;;17.38;81.50;101548.13;5052614;28;20400;-43
2021/09/17 07:54:43;;;;;;;88.72;45.67;;;;;;;17.70;80.58;101543.69;5037594;28;20102;-43
2021/09/17 07:57:09;;;;;;;85.82;44.80;;;;;;;18.12;79.37;101537.97;5058243;28;20103;-43
2021/09/17 07:59:34;;;;;;;77.68;43.15;;;;;;;18.37;78.25;101552.53;5053965;28;20491;-45
2021/09/17 08:01:59;;;;;;;71.45;42.28;;;;;;;18.53;77.06;101540.28;5050738;28;20464;-44
2021/09/17 08:04:24;;;;;;;71.93;42.75;;;;;;;18.50;77.40;101545.34;5039707;28;20033;-43
2021/09/17 08:06:50;;;;;;;73.38;40.53;;;;;;;18.92;76.14;101549.31;5051063;28;20082;-44
2021/09/17 08:09:15;;;;;;;69.95;39.17;;;;;;;19.42;74.26;101556.72;5051079;28;20052;-43
2021/09/17 08:11:43;;;;;;;60.88;38.60;;;;;;;19.74;72.95;101547.38;5052395;28;20037;-43
2021/09/17 08:14:08;;;;;;;61.95;37.80;;;;;;;19.99;71.61;101553.88;5039532;28;20017;-41
2021/09/17 08:16:34;;;;;;;65.35;38.40;;;;;;;19.41;72.99;101564.06;5062242;28;20399;-42
2021/09/17 08:18:59;;;;;;;63.40;39.25;;;;;;;19.29;74.19;101554.91;5074385;28;20486;-43
2021/09/17 08:21:24;;;;;;;64.78;40.15;;;;;;;19.37;73.48;101554.63;5072790;28;20363;-43
2021/09/17 08:23:50;;;;;;;62.28;38.53;;;;;;;19.61;73.74;101557.59;5059695;28;20452;-41
2021/09/17 08:26:17;;;;;;;55.70;36.30;;;;;;;19.78;72.66;101561.44;5074469;28;20499;-43
2021/09/17 08:28:43;;;;;;;59.03;34.50;;;;;;;19.80;72.17;101564.78;5074242;28;20027;-43
2021/09/17 08:31:08;;;;;;;49.45;33.95;;;;;;;19.72;71.45;101571.38;5074311;28;20107;-43
2021/09/17 08:33:33;;;;;;;45.22;32.40;;;;;;;19.69;72.88;101565.50;5063638;28;20050;-44
2021/09/17 08:35:59;;;;;;;56.10;32.40;;;;;;;20.02;71.92;101567.09;5069746;28;20380;-43
2021/09/17 08:38:25;;;;;;;40.33;28.42;;;;;;;20.57;70.24;101572.53;5074212;28;20383;-43
2021/09/17 08:40:55;;;;;;;46.53;29.00;;;;;;;20.82;68.07;101570.50;5074161;28;20032;-43
2021/09/17 08:43:21;;;;;;;46.95;29.27;;;;;;;20.41;68.91;101565.78;5064039;28;20103;-43
2021/09/17 08:45:47;;;;;;;44.63;29.13;;;;;;;20.53;69.42;101568.56;5069583;28;20024;-43
2021/09/17 08:48:14;;;;;;;39.25;26.10;;;;;;;20.89;68.11;101569.56;5074084;28;20051;-43
2021/09/17 08:50:39;;;;;;;39.03;26.10;;;;;;;21.31;66.37;101566.81;5073946;28;20029;-43
2021/09/17 08:53:06;;;;;;;32.30;22.85;;;;;;;21.70;64.77;101568.06;5068161;28;20046;-43
2021/09/17 08:55:31;;;;;;;28.73;21.08;;;;;;;22.33;63.30;101580.19;5063616;28;20031;-43
2021/09/17 08:57:56;;;;;;;23.92;17.08;;;;;;;21.83;62.65;101572.47;5073783;28;20021;-43
2021/09/17 09:00:31;;;;;;;20.95;15.50;;;;;;;21.48;64.23;101576.88;5073574;28;20115;-42
2021/09/17 09:02:57;;;;;;;25.67;16.55;;;;;;;20.83;65.23;101579.56;5067659;28;20037;-43
2021/09/17 09:05:33;;;;;;;25.30;17.27;;;;;;;20.27;67.48;101573.28;5058650;28;20104;-43
2021/09/17 09:07:59;;;;;;;23.88;16.60;;;;;;;20.10;68.97;101577.72;5053879;28;20036;-42
2021/09/17 09:10:26;;;;;;;23.48;16.63;;;;;;;19.97;69.24;101572.38;5053524;28;20028;-43
2021/09/17 09:12:54;;;;;;;24.27;17.52;;;;;;;19.99;69.67;101575.75;5044910;28;20115;-42
2021/09/17 09:15:25;;;;;;;23.15;15.30;;;;;;;20.10;69.21;101573.06;5044817;28;20102;-43
2021/09/17 09:17:51;;;;;;;15.85;12.65;;;;;;;20.36;67.83;101577.41;5053044;28;20500;-43
2021/09/17 09:20:36;;;;;;;18.60;12.63;;;;;;;20.33;67.33;101577.03;5053420;28;20040;-43
2021/09/17 09:23:19;;;;;;;17.08;11.75;;;;;;;20.59;66.29;101579.47;5047328;28;20100;-42
2021/09/17 09:26:01;;;;;;;16.33;10.60;;;;;;;20.68;64.87;101570.94;5049426;28;20037;-44
2021/09/17 09:28:46;;;;;;;11.57;8.55;;;;;;;21.18;64.49;101574.16;5053302;28;20037;-43
2021/09/17 09:31:14;;;;;;;11.82;7.95;;;;;;;21.34;62.40;101580.88;5053197;28;20064;-44
2021/09/17 09:33:41;;;;;;;12.68;8.55;;;;;;;21.48;62.27;101579.63;5043119;28;20502;-43
2021/09/17 09:36:17;;;;;;;13.48;10.73;;;;;;;21.12;63.60;101574.28;5049104;28;20032;-43
2021/09/17 09:38:52;;;;;;;13.70;9.80;;;;;;;20.92;64.49;101580.06;5052822;28;20025;-44
2021/09/17 09:41:21;;;;;;;15.75;11.40;;;;;;;20.77;65.15;101584.06;5053038;28;20057;-43
2021/09/17 09:43:56;;;;;;;13.88;10.27;;;;;;;20.75;64.94;101571.69;5039959;28;20124;-43
2021/09/17 09:46:34;;;;;;;14.88;10.15;;;;;;;20.82;64.39;101577.88;5052833;28;20072;-43
2021/09/17 09:49:02;;;;;;;16.10;9.88;;;;;;;20.79;64.23;101570.97;5052722;28;20056;-42
2021/09/17 09:51:30;;;;;;;12.70;9.90;;;;;;;20.81;63.51;101573.47;5052875;28;20033;-43
2021/09/17 09:53:57;;;;;;;12.95;9.90;;;;;;;20.83;63.93;101572.19;5038837;28;20045;-44
2021/09/17 09:56:23;;;;;;;;;;;;;;;20.74;63.67;101568.09;5052789;28;20094;-43
2021/09/17 09:58:50;;;;;;;17.75;9.52;;;;;;;21.03;64.08;101569.13;5052372;28;19966;-41
2021/09/17 10:01:18;;;;;;;15.07;10.90;;;;;;;21.43;62.14;101570.41;5053381;28;20158;-42
2021/09/17 10:03:48;;;;;;;15.60;9.30;;;;;;;21.67;62.82;101577.59;5050625;28;20559;-43
2021/09/17 10:06:16;;;;;;;15.50;9.85;;;;;;;21.74;61.84;101568.41;5056062;28;20455;-42
2021/09/17 10:08:42;;;;;;;14.88;8.35;;;;;;;22.18;62.25;101579.81;5069527;28;20513;-43
2021/09/17 10:11:07;;;;;;;8.48;5.65;;;;;;;22.48;60.25;101583.22;5071452;28;20127;-43
2021/09/17 10:13:33;;;;;;;5.43;3.30;;;;;;;22.45;59.40;101575.47;5053534;28;20024;-44
2021/09/17 10:15:59;;;;;;;4.03;2.78;;;;;;;22.36;59.90;101585.16;5049566;28;20025;-44
2021/09/17 10:18:25;;;;;;;6.50;2.78;;;;;;;22.31;59.32;101588.63;5056489;28;20162;-43
2021/09/17 10:20:50;;;;;;;3.67;2.47;;;;;;;22.34;59.11;101581.84;5071046;28;20028;-43
2021/09/17 10:23:27;;;;;;;11.88;2.55;;;;;;;21.97;59.55;101575.78;5050458;28;20045;-40
2021/09/17 10:26:08;;;;;;;8.80;2.85;;;;;;;21.80;59.94;101578.41;5063216;28;20181;-44
2021/09/17 10:28:34;;;;;;;2.75;2.20;;;;;;;21.93;59.49;101564.47;5066381;28;20128;-45
2021/09/17 10:31:18;;;;;;;5.63;2.55;;;;;;;21.97;58.43;101570.31;5060034;28;20028;-43
2021/09/17 10:33:45;;;;;;;3.05;2.03;;;;;;;22.02;57.81;101574.00;5041390;28;20025;-43
2021/09/17 10:36:11;;;;;;;5.00;2.13;;;;;;;22.02;58.36;101574.00;5046939;28;20029;-43
2021/09/17 10:38:36;;;;;;;3.70;1.63;;;;;;;21.99;56.77;101579.13;5051388;28;20379;-45
2021/09/17 10:41:05;;;;;;;4.80;2.40;;;;;;;21.95;57.92;101567.81;5053863;28;20032;-43
2021/09/17 10:43:43;;;;;;;3.92;2.10;;;;;;;22.06;58.14;101569.69;5053469;28;20021;-44
2021/09/17 10:46:10;;;;;;;5.05;1.90;;;;;;;22.01;57.71;101558.63;5054075;28;20025;-42
2021/09/17 10:48:41;;;;;;;3.33;2.30;;;;;;;22.08;58.04;101569.47;5044730;28;20025;-43
2021/09/17 10:51:07;;;;;;;6.40;2.38;;;;;;;22.05;57.43;101572.69;5050349;28;20036;-43
2021/09/17 10:53:41;;;;;;;4.25;1.95;;;;;;;22.26;57.64;101574.00;5059764;28;20029;-44
2021/09/17 10:56:13;;;;;;;3.88;2.05;;;;;;;22.38;57.28;101569.31;5060321;28;20478;-44
2021/09/17 10:58:40;;;;;;;5.38;2.30;;;;;;;22.61;57.02;101582.09;5062908;28;20153;-43
2021/09/17 11:01:16;;;;;;;3.17;1.77;;;;;;;22.53;55.01;101575.09;5056516;28;20120;-43
2021/09/17 11:03:48;;;;;;;2.38;1.83;;;;;;;22.61;55.59;101575.78;5042984;28;20743;-42
2021/09/17 11:06:37;;;;;;;10.60;2.25;;;;;;;22.41;55.84;101578.94;5050052;28;20059;-41